sensor_id;sensor_type;location;lat;lon;timestamp;temperature;humidity
77100;SHT31;66602;48.922;2.414;2023-11-21T00:01:52;9.89;93.85
77100;SHT31;66602;48.922;2.414;2023-11-21T00:04:17;9.87;93.70
77100;SHT31;66602;48.922;2.414;2023-11-21T00:06:43;9.86;93.80
77100;SHT31;66602;48.922;2.414;2023-11-21T00:09:12;9.80;93.74
77100;SHT31;66602;48.922;2.414;2023-11-21T00:11:38;9.80;93.89
77100;SHT31;66602;48.922;2.414;2023-11-21T00:14:04;9.74;93.97
77100;SHT31;66602;48.922;2.414;2023-11-21T00:16:29;9.73;94.00
77100;SHT31;66602;48.922;2.414;2023-11-21T00:18:55;9.72;94.01
77100;SHT31;66602;48.922;2.414;2023-11-21T00:21:20;9.69;94.11
77100;SHT31;66602;48.922;2.414;2023-11-21T00:23:45;9.66;94.12
77100;SHT31;66602;48.922;2.414;2023-11-21T00:26:11;9.65;94.07
77100;SHT31;66602;48.922;2.414;2023-11-21T00:28:36;9.62;94.23
77100;SHT31;66602;48.922;2.414;2023-11-21T00:31:02;9.49;94.24
77100;SHT31;66602;48.922;2.414;2023-11-21T00:33:27;9.40;94.59
77100;SHT31;66602;48.922;2.414;2023-11-21T00:35:53;9.36;94.95
77100;SHT31;66602;48.922;2.414;2023-11-21T00:38:18;9.38;95.28
77100;SHT31;66602;48.922;2.414;2023-11-21T00:40:45;9.49;94.90
77100;SHT31;66602;48.922;2.414;2023-11-21T00:43:11;9.29;94.87
77100;SHT31;66602;48.922;2.414;2023-11-21T00:45:36;9.10;94.97
77100;SHT31;66602;48.922;2.414;2023-11-21T00:48:02;8.87;94.76
77100;SHT31;66602;48.922;2.414;2023-11-21T00:50:30;8.67;95.44
77100;SHT31;66602;48.922;2.414;2023-11-21T00:52:56;8.54;95.48
77100;SHT31;66602;48.922;2.414;2023-11-21T00:55:21;8.63;97.10
77100;SHT31;66602;48.922;2.414;2023-11-21T00:57:47;8.50;96.40
77100;SHT31;66602;48.922;2.414;2023-11-21T01:00:13;8.36;96.24
77100;SHT31;66602;48.922;2.414;2023-11-21T01:02:45;8.30;96.45
77100;SHT31;66602;48.922;2.414;2023-11-21T01:05:12;8.25;96.55
77100;SHT31;66602;48.922;2.414;2023-11-21T01:07:37;8.19;96.63
77100;SHT31;66602;48.922;2.414;2023-11-21T01:10:03;8.15;96.77
77100;SHT31;66602;48.922;2.414;2023-11-21T01:12:34;8.10;96.82
77100;SHT31;66602;48.922;2.414;2023-11-21T01:15:00;8.01;96.66
77100;SHT31;66602;48.922;2.414;2023-11-21T01:17:26;8.01;96.92
77100;SHT31;66602;48.922;2.414;2023-11-21T01:19:52;8.01;97.09
77100;SHT31;66602;48.922;2.414;2023-11-21T01:22:17;8.09;97.41
77100;SHT31;66602;48.922;2.414;2023-11-21T01:24:47;8.12;97.46
77100;SHT31;66602;48.922;2.414;2023-11-21T01:27:12;8.16;97.89
77100;SHT31;66602;48.922;2.414;2023-11-21T01:29:38;8.13;97.64
77100;SHT31;66602;48.922;2.414;2023-11-21T01:32:04;8.13;97.61
77100;SHT31;66602;48.922;2.414;2023-11-21T01:34:29;8.07;97.39
77100;SHT31;66602;48.922;2.414;2023-11-21T01:36:56;8.06;97.34
77100;SHT31;66602;48.922;2.414;2023-11-21T01:39:21;8.37;98.19
77100;SHT31;66602;48.922;2.414;2023-11-21T01:41:50;8.57;98.39
77100;SHT31;66602;48.922;2.414;2023-11-21T01:44:15;8.77;98.46
77100;SHT31;66602;48.922;2.414;2023-11-21T01:46:42;8.85;98.47
77100;SHT31;66602;48.922;2.414;2023-11-21T01:49:09;8.95;98.40
77100;SHT31;66602;48.922;2.414;2023-11-21T01:51:36;8.92;98.24
77100;SHT31;66602;48.922;2.414;2023-11-21T01:54:02;8.94;97.59
77100;SHT31;66602;48.922;2.414;2023-11-21T01:56:30;8.89;97.48
77100;SHT31;66602;48.922;2.414;2023-11-21T01:58:57;8.89;97.48
77100;SHT31;66602;48.922;2.414;2023-11-21T02:01:22;8.85;97.38
77100;SHT31;66602;48.922;2.414;2023-11-21T02:03:48;8.83;97.37
77100;SHT31;66602;48.922;2.414;2023-11-21T02:06:14;8.77;97.25
77100;SHT31;66602;48.922;2.414;2023-11-21T02:08:40;8.77;97.24
77100;SHT31;66602;48.922;2.414;2023-11-21T02:11:07;8.67;97.14
77100;SHT31;66602;48.922;2.414;2023-11-21T02:13:34;8.63;97.06
77100;SHT31;66602;48.922;2.414;2023-11-21T02:16:01;8.59;97.22
77100;SHT31;66602;48.922;2.414;2023-11-21T02:18:27;8.64;97.42
77100;SHT31;66602;48.922;2.414;2023-11-21T02:20:55;8.70;97.54
77100;SHT31;66602;48.922;2.414;2023-11-21T02:23:20;8.74;97.56
77100;SHT31;66602;48.922;2.414;2023-11-21T02:25:48;8.75;97.41
77100;SHT31;66602;48.922;2.414;2023-11-21T02:28:14;8.78;97.30
77100;SHT31;66602;48.922;2.414;2023-11-21T02:30:41;8.81;97.25
77100;SHT31;66602;48.922;2.414;2023-11-21T02:33:08;8.85;97.47
77100;SHT31;66602;48.922;2.414;2023-11-21T02:35:33;8.94;97.43
77100;SHT31;66602;48.922;2.414;2023-11-21T02:38:00;9.04;97.50
77100;SHT31;66602;48.922;2.414;2023-11-21T02:40:25;9.08;97.38
77100;SHT31;66602;48.922;2.414;2023-11-21T02:42:52;9.11;97.21
77100;SHT31;66602;48.922;2.414;2023-11-21T02:45:18;9.10;97.14
77100;SHT31;66602;48.922;2.414;2023-11-21T02:47:46;9.10;97.00
77100;SHT31;66602;48.922;2.414;2023-11-21T02:50:12;9.10;96.59
77100;SHT31;66602;48.922;2.414;2023-11-21T02:52:38;9.03;96.38
77100;SHT31;66602;48.922;2.414;2023-11-21T02:55:05;8.94;96.24
77100;SHT31;66602;48.922;2.414;2023-11-21T02:57:32;8.91;96.31
77100;SHT31;66602;48.922;2.414;2023-11-21T02:59:58;8.85;96.35
77100;SHT31;66602;48.922;2.414;2023-11-21T03:02:25;8.81;96.38
77100;SHT31;66602;48.922;2.414;2023-11-21T03:04:50;8.84;96.56
77100;SHT31;66602;48.922;2.414;2023-11-21T03:07:16;8.81;96.51
77100;SHT31;66602;48.922;2.414;2023-11-21T03:09:44;8.80;96.46
77100;SHT31;66602;48.922;2.414;2023-11-21T03:12:11;8.80;96.48
77100;SHT31;66602;48.922;2.414;2023-11-21T03:14:38;8.77;96.40
77100;SHT31;66602;48.922;2.414;2023-11-21T03:17:04;8.78;96.60
77100;SHT31;66602;48.922;2.414;2023-11-21T03:19:30;8.80;96.62
77100;SHT31;66602;48.922;2.414;2023-11-21T03:21:56;8.81;96.65
77100;SHT31;66602;48.922;2.414;2023-11-21T03:24:21;8.84;96.61
77100;SHT31;66602;48.922;2.414;2023-11-21T03:26:48;8.89;96.58
77100;SHT31;66602;48.922;2.414;2023-11-21T03:29:14;8.92;96.55
77100;SHT31;66602;48.922;2.414;2023-11-21T03:31:40;8.92;96.40
77100;SHT31;66602;48.922;2.414;2023-11-21T03:34:06;9.01;95.95
77100;SHT31;66602;48.922;2.414;2023-11-21T03:36:32;8.97;96.15
77100;SHT31;66602;48.922;2.414;2023-11-21T03:38:57;8.98;96.22
77100;SHT31;66602;48.922;2.414;2023-11-21T03:41:23;9.03;96.23
77100;SHT31;66602;48.922;2.414;2023-11-21T03:43:48;9.05;96.28
77100;SHT31;66602;48.922;2.414;2023-11-21T03:46:14;9.05;96.23
77100;SHT31;66602;48.922;2.414;2023-11-21T03:48:40;9.14;96.01
77100;SHT31;66602;48.922;2.414;2023-11-21T03:51:06;9.18;95.89
77100;SHT31;66602;48.922;2.414;2023-11-21T03:53:32;9.25;95.56
77100;SHT31;66602;48.922;2.414;2023-11-21T03:55:57;9.24;95.49
77100;SHT31;66602;48.922;2.414;2023-11-21T03:58:23;9.26;95.54
77100;SHT31;66602;48.922;2.414;2023-11-21T04:00:48;9.29;95.21
77100;SHT31;66602;48.922;2.414;2023-11-21T04:03:16;9.32;95.21
77100;SHT31;66602;48.922;2.414;2023-11-21T04:05:42;9.35;95.13
77100;SHT31;66602;48.922;2.414;2023-11-21T04:08:07;9.36;94.88
77100;SHT31;66602;48.922;2.414;2023-11-21T04:10:32;9.40;94.72
77100;SHT31;66602;48.922;2.414;2023-11-21T04:12:58;9.42;94.93
77100;SHT31;66602;48.922;2.414;2023-11-21T04:15:24;9.45;94.90
77100;SHT31;66602;48.922;2.414;2023-11-21T04:17:50;9.43;94.76
77100;SHT31;66602;48.922;2.414;2023-11-21T04:20:15;9.45;94.70
77100;SHT31;66602;48.922;2.414;2023-11-21T04:22:42;9.50;94.15
77100;SHT31;66602;48.922;2.414;2023-11-21T04:25:13;9.47;94.45
77100;SHT31;66602;48.922;2.414;2023-11-21T04:27:43;9.47;94.38
77100;SHT31;66602;48.922;2.414;2023-11-21T04:30:12;9.50;94.64
77100;SHT31;66602;48.922;2.414;2023-11-21T04:32:38;9.50;94.49
77100;SHT31;66602;48.922;2.414;2023-11-21T04:35:07;9.50;94.57
77100;SHT31;66602;48.922;2.414;2023-11-21T04:37:34;9.52;94.34
77100;SHT31;66602;48.922;2.414;2023-11-21T04:39:59;9.53;94.47
77100;SHT31;66602;48.922;2.414;2023-11-21T04:42:25;9.56;94.45
77100;SHT31;66602;48.922;2.414;2023-11-21T04:44:50;9.56;94.58
77100;SHT31;66602;48.922;2.414;2023-11-21T04:47:18;9.60;94.52
77100;SHT31;66602;48.922;2.414;2023-11-21T04:49:46;9.63;94.41
77100;SHT31;66602;48.922;2.414;2023-11-21T04:52:12;9.65;94.26
77100;SHT31;66602;48.922;2.414;2023-11-21T04:54:37;9.65;94.50
77100;SHT31;66602;48.922;2.414;2023-11-21T04:57:05;9.63;94.67
77100;SHT31;66602;48.922;2.414;2023-11-21T04:59:32;9.63;94.65
77100;SHT31;66602;48.922;2.414;2023-11-21T05:01:58;9.62;94.60
77100;SHT31;66602;48.922;2.414;2023-11-21T05:04:25;9.63;94.71
77100;SHT31;66602;48.922;2.414;2023-11-21T05:06:50;9.63;94.71
77100;SHT31;66602;48.922;2.414;2023-11-21T05:09:16;9.63;94.94
77100;SHT31;66602;48.922;2.414;2023-11-21T05:11:42;9.63;95.06
77100;SHT31;66602;48.922;2.414;2023-11-21T05:14:08;9.65;95.01
77100;SHT31;66602;48.922;2.414;2023-11-21T05:16:34;9.65;95.10
77100;SHT31;66602;48.922;2.414;2023-11-21T05:19:00;9.65;95.14
77100;SHT31;66602;48.922;2.414;2023-11-21T05:21:29;9.65;95.20
77100;SHT31;66602;48.922;2.414;2023-11-21T05:23:56;9.63;95.22
77100;SHT31;66602;48.922;2.414;2023-11-21T05:26:22;9.62;95.30
77100;SHT31;66602;48.922;2.414;2023-11-21T05:28:47;9.66;95.17
77100;SHT31;66602;48.922;2.414;2023-11-21T05:31:13;9.65;95.22
77100;SHT31;66602;48.922;2.414;2023-11-21T05:33:38;9.66;95.30
77100;SHT31;66602;48.922;2.414;2023-11-21T05:36:04;9.67;95.29
77100;SHT31;66602;48.922;2.414;2023-11-21T05:38:30;9.66;95.29
77100;SHT31;66602;48.922;2.414;2023-11-21T05:40:55;9.69;95.37
77100;SHT31;66602;48.922;2.414;2023-11-21T05:43:20;9.73;95.43
77100;SHT31;66602;48.922;2.414;2023-11-21T05:45:46;9.74;95.44
77100;SHT31;66602;48.922;2.414;2023-11-21T05:48:11;9.76;95.42
77100;SHT31;66602;48.922;2.414;2023-11-21T05:50:37;9.77;95.38
77100;SHT31;66602;48.922;2.414;2023-11-21T05:53:03;9.77;95.39
77100;SHT31;66602;48.922;2.414;2023-11-21T05:55:32;9.79;95.40
77100;SHT31;66602;48.922;2.414;2023-11-21T05:57:58;9.77;95.49
77100;SHT31;66602;48.922;2.414;2023-11-21T06:00:23;9.76;95.50
77100;SHT31;66602;48.922;2.414;2023-11-21T06:02:51;9.73;95.52
77100;SHT31;66602;48.922;2.414;2023-11-21T06:05:22;9.74;95.64
77100;SHT31;66602;48.922;2.414;2023-11-21T06:07:54;9.73;95.71
77100;SHT31;66602;48.922;2.414;2023-11-21T06:10:22;9.73;95.81
77100;SHT31;66602;48.922;2.414;2023-11-21T06:12:49;9.76;95.86
77100;SHT31;66602;48.922;2.414;2023-11-21T06:15:14;9.76;95.96
77100;SHT31;66602;48.922;2.414;2023-11-21T06:17:41;9.76;96.15
77100;SHT31;66602;48.922;2.414;2023-11-21T06:20:08;9.76;96.17
77100;SHT31;66602;48.922;2.414;2023-11-21T06:22:44;9.74;96.33
77100;SHT31;66602;48.922;2.414;2023-11-21T06:25:11;9.72;96.39
77100;SHT31;66602;48.922;2.414;2023-11-21T06:27:48;9.70;96.60
77100;SHT31;66602;48.922;2.414;2023-11-21T06:30:14;9.70;96.80
77100;SHT31;66602;48.922;2.414;2023-11-21T06:32:45;9.66;96.80
77100;SHT31;66602;48.922;2.414;2023-11-21T06:35:13;9.67;96.94
77100;SHT31;66602;48.922;2.414;2023-11-21T06:37:40;9.66;97.09
77100;SHT31;66602;48.922;2.414;2023-11-21T06:40:06;9.69;97.27
77100;SHT31;66602;48.922;2.414;2023-11-21T06:42:32;9.67;97.20
77100;SHT31;66602;48.922;2.414;2023-11-21T06:44:59;9.69;97.17
77100;SHT31;66602;48.922;2.414;2023-11-21T06:47:25;9.69;97.34
77100;SHT31;66602;48.922;2.414;2023-11-21T06:49:51;9.67;97.40
77100;SHT31;66602;48.922;2.414;2023-11-21T06:52:18;9.67;97.38
77100;SHT31;66602;48.922;2.414;2023-11-21T06:54:43;9.66;97.52
77100;SHT31;66602;48.922;2.414;2023-11-21T06:57:09;9.66;97.67
77100;SHT31;66602;48.922;2.414;2023-11-21T06:59:35;9.66;97.61
77100;SHT31;66602;48.922;2.414;2023-11-21T07:02:00;9.67;97.65
77100;SHT31;66602;48.922;2.414;2023-11-21T07:04:25;9.70;97.82
77100;SHT31;66602;48.922;2.414;2023-11-21T07:06:53;9.73;97.80
77100;SHT31;66602;48.922;2.414;2023-11-21T07:09:18;9.74;97.78
77100;SHT31;66602;48.922;2.414;2023-11-21T07:11:48;9.76;97.85
77100;SHT31;66602;48.922;2.414;2023-11-21T07:14:14;9.79;97.86
77100;SHT31;66602;48.922;2.414;2023-11-21T07:16:39;9.82;97.87
77100;SHT31;66602;48.922;2.414;2023-11-21T07:19:05;9.87;97.90
77100;SHT31;66602;48.922;2.414;2023-11-21T07:21:34;9.83;97.92
77100;SHT31;66602;48.922;2.414;2023-11-21T07:24:01;9.87;97.94
77100;SHT31;66602;48.922;2.414;2023-11-21T07:26:27;9.86;97.95
77100;SHT31;66602;48.922;2.414;2023-11-21T07:28:53;9.84;97.99
77100;SHT31;66602;48.922;2.414;2023-11-21T07:31:18;9.86;97.99
77100;SHT31;66602;48.922;2.414;2023-11-21T07:33:46;9.87;97.98
77100;SHT31;66602;48.922;2.414;2023-11-21T07:36:15;9.90;98.02
77100;SHT31;66602;48.922;2.414;2023-11-21T07:38:41;9.90;98.02
77100;SHT31;66602;48.922;2.414;2023-11-21T07:41:08;9.93;97.98
77100;SHT31;66602;48.922;2.414;2023-11-21T07:43:35;9.94;98.01
77100;SHT31;66602;48.922;2.414;2023-11-21T07:46:01;9.93;98.03
77100;SHT31;66602;48.922;2.414;2023-11-21T07:48:32;9.95;98.08
77100;SHT31;66602;48.922;2.414;2023-11-21T07:50:58;10.00;98.11
77100;SHT31;66602;48.922;2.414;2023-11-21T07:53:24;10.05;98.05
77100;SHT31;66602;48.922;2.414;2023-11-21T07:55:51;10.10;98.09
77100;SHT31;66602;48.922;2.414;2023-11-21T07:58:17;10.10;98.06
77100;SHT31;66602;48.922;2.414;2023-11-21T08:00:43;10.08;98.00
77100;SHT31;66602;48.922;2.414;2023-11-21T08:03:09;10.07;97.97
77100;SHT31;66602;48.922;2.414;2023-11-21T08:05:34;10.10;97.99
77100;SHT31;66602;48.922;2.414;2023-11-21T08:08:00;10.11;98.02
77100;SHT31;66602;48.922;2.414;2023-11-21T08:10:25;10.15;98.00
77100;SHT31;66602;48.922;2.414;2023-11-21T08:12:51;10.18;97.95
77100;SHT31;66602;48.922;2.414;2023-11-21T08:15:17;10.22;97.92
77100;SHT31;66602;48.922;2.414;2023-11-21T08:17:43;10.25;97.88
77100;SHT31;66602;48.922;2.414;2023-11-21T08:20:09;10.27;97.84
77100;SHT31;66602;48.922;2.414;2023-11-21T08:22:36;10.28;97.81
77100;SHT31;66602;48.922;2.414;2023-11-21T08:25:01;10.31;97.77
77100;SHT31;66602;48.922;2.414;2023-11-21T08:27:29;10.33;97.72
77100;SHT31;66602;48.922;2.414;2023-11-21T08:29:55;10.38;97.62
77100;SHT31;66602;48.922;2.414;2023-11-21T08:32:21;10.38;97.50
77100;SHT31;66602;48.922;2.414;2023-11-21T08:34:47;10.38;97.54
77100;SHT31;66602;48.922;2.414;2023-11-21T08:37:16;10.44;97.41
77100;SHT31;66602;48.922;2.414;2023-11-21T08:39:43;10.48;97.45
77100;SHT31;66602;48.922;2.414;2023-11-21T08:42:09;10.49;97.21
77100;SHT31;66602;48.922;2.414;2023-11-21T08:44:34;10.51;97.10
77100;SHT31;66602;48.922;2.414;2023-11-21T08:47:00;10.52;96.97
77100;SHT31;66602;48.922;2.414;2023-11-21T08:49:25;10.59;96.82
77100;SHT31;66602;48.922;2.414;2023-11-21T08:51:53;10.66;96.73
77100;SHT31;66602;48.922;2.414;2023-11-21T08:54:21;10.71;96.55
77100;SHT31;66602;48.922;2.414;2023-11-21T08:56:46;10.72;96.46
77100;SHT31;66602;48.922;2.414;2023-11-21T08:59:12;10.69;96.51
77100;SHT31;66602;48.922;2.414;2023-11-21T09:01:39;10.75;96.55
77100;SHT31;66602;48.922;2.414;2023-11-21T09:04:05;10.73;96.45
77100;SHT31;66602;48.922;2.414;2023-11-21T09:06:30;10.79;96.35
77100;SHT31;66602;48.922;2.414;2023-11-21T09:08:56;10.77;96.35
77100;SHT31;66602;48.922;2.414;2023-11-21T09:11:21;10.82;96.36
77100;SHT31;66602;48.922;2.414;2023-11-21T09:13:47;10.93;95.91
77100;SHT31;66602;48.922;2.414;2023-11-21T09:16:14;11.16;95.80
77100;SHT31;66602;48.922;2.414;2023-11-21T09:18:40;11.57;94.97
77100;SHT31;66602;48.922;2.414;2023-11-21T09:21:06;11.70;94.18
77100;SHT31;66602;48.922;2.414;2023-11-21T09:23:31;11.75;93.73
77100;SHT31;66602;48.922;2.414;2023-11-21T09:25:57;11.72;93.39
77100;SHT31;66602;48.922;2.414;2023-11-21T09:28:25;11.81;93.47
77100;SHT31;66602;48.922;2.414;2023-11-21T09:30:53;11.89;92.96
77100;SHT31;66602;48.922;2.414;2023-11-21T09:33:18;12.03;92.16
77100;SHT31;66602;48.922;2.414;2023-11-21T09:35:44;12.09;92.17
77100;SHT31;66602;48.922;2.414;2023-11-21T09:38:10;12.32;92.23
77100;SHT31;66602;48.922;2.414;2023-11-21T09:40:36;12.60;92.03
77100;SHT31;66602;48.922;2.414;2023-11-21T09:43:08;12.42;91.15
77100;SHT31;66602;48.922;2.414;2023-11-21T09:45:39;12.57;91.71
77100;SHT31;66602;48.922;2.414;2023-11-21T09:48:05;12.54;91.15
77100;SHT31;66602;48.922;2.414;2023-11-21T09:50:32;12.52;91.49
77100;SHT31;66602;48.922;2.414;2023-11-21T09:53:16;12.19;90.96
77100;SHT31;66602;48.922;2.414;2023-11-21T09:55:44;11.93;92.08
77100;SHT31;66602;48.922;2.414;2023-11-21T09:58:10;11.75;92.72
77100;SHT31;66602;48.922;2.414;2023-11-21T10:00:46;11.64;93.32
77100;SHT31;66602;48.922;2.414;2023-11-21T10:03:11;11.45;93.94
77100;SHT31;66602;48.922;2.414;2023-11-21T10:05:38;11.48;94.49
77100;SHT31;66602;48.922;2.414;2023-11-21T10:08:07;11.47;94.67
77100;SHT31;66602;48.922;2.414;2023-11-21T10:10:33;11.41;94.71
77100;SHT31;66602;48.922;2.414;2023-11-21T10:13:02;11.33;94.96
77100;SHT31;66602;48.922;2.414;2023-11-21T10:15:35;11.31;95.06
77100;SHT31;66602;48.922;2.414;2023-11-21T10:18:02;11.33;95.46
77100;SHT31;66602;48.922;2.414;2023-11-21T10:20:28;11.40;95.60
77100;SHT31;66602;48.922;2.414;2023-11-21T10:22:54;11.44;95.42
77100;SHT31;66602;48.922;2.414;2023-11-21T10:25:22;11.48;95.48
77100;SHT31;66602;48.922;2.414;2023-11-21T10:27:48;11.43;94.94
77100;SHT31;66602;48.922;2.414;2023-11-21T10:30:16;11.48;95.07
77100;SHT31;66602;48.922;2.414;2023-11-21T10:32:42;11.54;94.83
77100;SHT31;66602;48.922;2.414;2023-11-21T10:35:08;11.47;94.74
77100;SHT31;66602;48.922;2.414;2023-11-21T10:37:37;11.34;94.97
77100;SHT31;66602;48.922;2.414;2023-11-21T10:40:07;11.28;95.45
77100;SHT31;66602;48.922;2.414;2023-11-21T10:42:33;11.27;95.77
77100;SHT31;66602;48.922;2.414;2023-11-21T10:44:59;11.34;95.73
77100;SHT31;66602;48.922;2.414;2023-11-21T10:47:26;11.53;95.62
77100;SHT31;66602;48.922;2.414;2023-11-21T10:49:51;11.51;95.24
77100;SHT31;66602;48.922;2.414;2023-11-21T10:52:19;11.43;95.27
77100;SHT31;66602;48.922;2.414;2023-11-21T10:54:45;11.43;95.56
77100;SHT31;66602;48.922;2.414;2023-11-21T10:57:16;11.34;95.57
77100;SHT31;66602;48.922;2.414;2023-11-21T10:59:46;11.35;95.73
77100;SHT31;66602;48.922;2.414;2023-11-21T11:02:23;11.44;95.89
77100;SHT31;66602;48.922;2.414;2023-11-21T11:04:52;11.50;95.84
77100;SHT31;66602;48.922;2.414;2023-11-21T11:07:19;11.47;95.76
77100;SHT31;66602;48.922;2.414;2023-11-21T11:09:46;11.51;95.56
77100;SHT31;66602;48.922;2.414;2023-11-21T11:12:12;11.51;95.59
77100;SHT31;66602;48.922;2.414;2023-11-21T11:14:40;11.55;95.43
77100;SHT31;66602;48.922;2.414;2023-11-21T11:17:07;11.50;95.42
77100;SHT31;66602;48.922;2.414;2023-11-21T11:19:34;11.54;95.57
77100;SHT31;66602;48.922;2.414;2023-11-21T11:25:14;11.57;95.61
77100;SHT31;66602;48.922;2.414;2023-11-21T11:31:04;11.62;95.35
77100;SHT31;66602;48.922;2.414;2023-11-21T11:33:41;11.79;95.22
77100;SHT31;66602;48.922;2.414;2023-11-21T11:36:29;11.71;94.91
77100;SHT31;66602;48.922;2.414;2023-11-21T11:38:56;11.65;94.75
77100;SHT31;66602;48.922;2.414;2023-11-21T11:41:26;11.61;95.00
77100;SHT31;66602;48.922;2.414;2023-11-21T11:43:53;11.57;95.17
77100;SHT31;66602;48.922;2.414;2023-11-21T11:46:18;11.58;95.37
77100;SHT31;66602;48.922;2.414;2023-11-21T11:48:47;11.58;95.57
77100;SHT31;66602;48.922;2.414;2023-11-21T11:51:14;11.54;95.62
77100;SHT31;66602;48.922;2.414;2023-11-21T11:53:43;11.53;95.79
77100;SHT31;66602;48.922;2.414;2023-11-21T11:58:52;11.61;95.78
77100;SHT31;66602;48.922;2.414;2023-11-21T12:01:19;11.74;95.78
77100;SHT31;66602;48.922;2.414;2023-11-21T12:06:40;11.85;95.21
77100;SHT31;66602;48.922;2.414;2023-11-21T12:09:06;11.91;94.79
77100;SHT31;66602;48.922;2.414;2023-11-21T12:11:32;11.98;94.43
77100;SHT31;66602;48.922;2.414;2023-11-21T12:13:58;11.91;94.00
77100;SHT31;66602;48.922;2.414;2023-11-21T12:16:25;12.02;94.05
77100;SHT31;66602;48.922;2.414;2023-11-21T12:18:53;12.19;93.94
77100;SHT31;66602;48.922;2.414;2023-11-21T12:21:20;12.13;92.54
77100;SHT31;66602;48.922;2.414;2023-11-21T12:23:45;12.03;92.67
77100;SHT31;66602;48.922;2.414;2023-11-21T12:26:13;11.93;92.86
77100;SHT31;66602;48.922;2.414;2023-11-21T12:28:38;11.88;93.03
77100;SHT31;66602;48.922;2.414;2023-11-21T12:31:04;11.85;93.46
77100;SHT31;66602;48.922;2.414;2023-11-21T12:33:33;11.84;93.36
77100;SHT31;66602;48.922;2.414;2023-11-21T12:35:58;11.71;93.33
77100;SHT31;66602;48.922;2.414;2023-11-21T12:38:24;11.70;93.94
77100;SHT31;66602;48.922;2.414;2023-11-21T12:40:50;11.78;94.23
77100;SHT31;66602;48.922;2.414;2023-11-21T12:43:17;11.98;93.96
77100;SHT31;66602;48.922;2.414;2023-11-21T12:45:43;12.19;93.46
77100;SHT31;66602;48.922;2.414;2023-11-21T12:48:09;12.12;92.93
77100;SHT31;66602;48.922;2.414;2023-11-21T12:50:37;12.05;93.05
77100;SHT31;66602;48.922;2.414;2023-11-21T12:53:10;12.19;92.78
77100;SHT31;66602;48.922;2.414;2023-11-21T12:55:43;12.36;92.69
77100;SHT31;66602;48.922;2.414;2023-11-21T12:58:10;12.37;92.39
77100;SHT31;66602;48.922;2.414;2023-11-21T13:00:40;12.43;91.54
77100;SHT31;66602;48.922;2.414;2023-11-21T13:03:09;12.67;91.40
77100;SHT31;66602;48.922;2.414;2023-11-21T13:05:39;13.38;89.65
77100;SHT31;66602;48.922;2.414;2023-11-21T13:08:10;13.69;87.43
77100;SHT31;66602;48.922;2.414;2023-11-21T13:10:40;13.52;86.93
77100;SHT31;66602;48.922;2.414;2023-11-21T13:13:08;13.29;88.27
77100;SHT31;66602;48.922;2.414;2023-11-21T13:15:38;13.25;89.02
77100;SHT31;66602;48.922;2.414;2023-11-21T13:18:06;13.28;88.26
77100;SHT31;66602;48.922;2.414;2023-11-21T13:20:32;13.23;87.66
77100;SHT31;66602;48.922;2.414;2023-11-21T13:22:58;12.85;88.11
77100;SHT31;66602;48.922;2.414;2023-11-21T13:25:28;12.57;89.26
77100;SHT31;66602;48.922;2.414;2023-11-21T13:27:55;12.36;89.90
77100;SHT31;66602;48.922;2.414;2023-11-21T13:30:21;12.23;89.93
77100;SHT31;66602;48.922;2.414;2023-11-21T13:33:00;12.15;90.78
77100;SHT31;66602;48.922;2.414;2023-11-21T13:35:37;12.22;90.83
77100;SHT31;66602;48.922;2.414;2023-11-21T13:38:10;12.44;91.28
77100;SHT31;66602;48.922;2.414;2023-11-21T13:40:38;12.53;89.64
77100;SHT31;66602;48.922;2.414;2023-11-21T13:43:16;12.50;89.41
77100;SHT31;66602;48.922;2.414;2023-11-21T13:45:42;12.47;89.35
77100;SHT31;66602;48.922;2.414;2023-11-21T13:48:09;12.54;89.30
77100;SHT31;66602;48.922;2.414;2023-11-21T13:50:46;12.50;89.14
77100;SHT31;66602;48.922;2.414;2023-11-21T13:53:20;12.47;89.97
77100;SHT31;66602;48.922;2.414;2023-11-21T13:55:53;12.40;89.99
77100;SHT31;66602;48.922;2.414;2023-11-21T13:58:26;12.33;90.42
77100;SHT31;66602;48.922;2.414;2023-11-21T14:01:07;12.26;90.31
77100;SHT31;66602;48.922;2.414;2023-11-21T14:03:42;12.18;90.01
77100;SHT31;66602;48.922;2.414;2023-11-21T14:06:10;12.13;90.86
77100;SHT31;66602;48.922;2.414;2023-11-21T14:08:40;12.12;91.04
77100;SHT31;66602;48.922;2.414;2023-11-21T14:11:07;12.03;91.16
77100;SHT31;66602;48.922;2.414;2023-11-21T14:13:32;11.92;91.15
77100;SHT31;66602;48.922;2.414;2023-11-21T14:15:59;11.91;91.43
77100;SHT31;66602;48.922;2.414;2023-11-21T14:18:28;11.95;91.74
77100;SHT31;66602;48.922;2.414;2023-11-21T14:21:04;11.95;91.48
77100;SHT31;66602;48.922;2.414;2023-11-21T14:23:31;11.98;91.32
77100;SHT31;66602;48.922;2.414;2023-11-21T14:25:56;11.93;91.02
77100;SHT31;66602;48.922;2.414;2023-11-21T14:28:23;11.99;91.10
77100;SHT31;66602;48.922;2.414;2023-11-21T14:30:49;12.15;91.47
77100;SHT31;66602;48.922;2.414;2023-11-21T14:33:14;12.18;90.88
77100;SHT31;66602;48.922;2.414;2023-11-21T14:35:42;12.26;91.11
77100;SHT31;66602;48.922;2.414;2023-11-21T14:38:08;12.29;90.23
77100;SHT31;66602;48.922;2.414;2023-11-21T14:40:35;12.26;90.11
77100;SHT31;66602;48.922;2.414;2023-11-21T14:43:02;12.15;90.37
77100;SHT31;66602;48.922;2.414;2023-11-21T14:45:31;11.95;89.95
77100;SHT31;66602;48.922;2.414;2023-11-21T14:47:57;11.81;89.98
77100;SHT31;66602;48.922;2.414;2023-11-21T14:50:32;11.79;89.20
77100;SHT31;66602;48.922;2.414;2023-11-21T14:53:07;11.72;88.93
77100;SHT31;66602;48.922;2.414;2023-11-21T14:55:37;11.67;89.22
77100;SHT31;66602;48.922;2.414;2023-11-21T14:58:05;11.64;89.50
77100;SHT31;66602;48.922;2.414;2023-11-21T15:00:31;11.65;90.15
77100;SHT31;66602;48.922;2.414;2023-11-21T15:03:00;11.65;90.19
77100;SHT31;66602;48.922;2.414;2023-11-21T15:05:26;11.71;89.82
77100;SHT31;66602;48.922;2.414;2023-11-21T15:07:53;11.68;89.91
77100;SHT31;66602;48.922;2.414;2023-11-21T15:10:33;11.65;89.75
77100;SHT31;66602;48.922;2.414;2023-11-21T15:13:25;11.61;89.47
77100;SHT31;66602;48.922;2.414;2023-11-21T15:15:53;11.57;89.88
77100;SHT31;66602;48.922;2.414;2023-11-21T15:18:20;11.55;90.00
77100;SHT31;66602;48.922;2.414;2023-11-21T15:20:46;11.48;90.28
77100;SHT31;66602;48.922;2.414;2023-11-21T15:23:11;11.43;90.48
77100;SHT31;66602;48.922;2.414;2023-11-21T15:25:42;11.41;90.43
77100;SHT31;66602;48.922;2.414;2023-11-21T15:28:08;11.41;90.70
77100;SHT31;66602;48.922;2.414;2023-11-21T15:30:33;11.40;90.90
77100;SHT31;66602;48.922;2.414;2023-11-21T15:33:00;11.37;91.24
77100;SHT31;66602;48.922;2.414;2023-11-21T15:35:26;11.38;91.18
77100;SHT31;66602;48.922;2.414;2023-11-21T15:37:53;11.43;90.98
77100;SHT31;66602;48.922;2.414;2023-11-21T15:40:22;11.43;91.31
77100;SHT31;66602;48.922;2.414;2023-11-21T15:42:49;11.40;91.78
77100;SHT31;66602;48.922;2.414;2023-11-21T15:45:15;11.33;92.69
77100;SHT31;66602;48.922;2.414;2023-11-21T15:47:44;11.27;93.53
77100;SHT31;66602;48.922;2.414;2023-11-21T15:50:09;11.19;93.96